createdAt,value
2023-03-06T00:00:51.880Z,69.66
2023-03-06T00:03:20.791Z,69.26
2023-03-06T00:05:48.870Z,69.34
2023-03-06T00:08:16.719Z,70.67
2023-03-06T00:10:44.656Z,71.52
2023-03-06T00:13:15.300Z,70.64
2023-03-06T00:15:43.135Z,72.07
2023-03-06T00:18:10.983Z,72.33
2023-03-06T00:20:40.593Z,71.31
2023-03-06T00:23:09.736Z,71.29
2023-03-06T00:25:38.881Z,72.66
2023-03-06T00:28:06.806Z,72.09
2023-03-06T00:30:34.811Z,70.82
2023-03-06T00:33:03.143Z,71.17
2023-03-06T00:35:31.576Z,71.96
2023-03-06T00:37:59.854Z,72.13
2023-03-06T00:40:27.714Z,72.09
2023-03-06T00:42:55.570Z,72.14
2023-03-06T00:45:23.645Z,71.32
2023-03-06T00:47:51.992Z,70.68
2023-03-06T00:50:19.983Z,71.69
2023-03-06T00:52:47.869Z,71.46
2023-03-06T00:55:15.850Z,71.17
2023-03-06T00:57:43.728Z,71.67
2023-03-06T01:00:12.980Z,72.05
2023-03-06T01:02:41.471Z,71.98
2023-03-06T01:05:10.399Z,71.49
2023-03-06T01:07:38.766Z,72.93
2023-03-06T01:10:08.115Z,71.75
2023-03-06T01:12:36.146Z,72.06
2023-03-06T01:15:04.936Z,71.77
2023-03-06T01:17:32.736Z,72.05
2023-03-06T01:20:00.651Z,70.96
2023-03-06T01:22:28.595Z,71.20
2023-03-06T01:24:56.474Z,71.87
2023-03-06T01:27:24.400Z,71.54
2023-03-06T01:29:52.225Z,71.11
2023-03-06T01:32:21.501Z,71.65
2023-03-06T01:34:49.502Z,71.33
2023-03-06T01:37:17.376Z,72.83
2023-03-06T01:39:45.241Z,72.27
2023-03-06T01:42:13.126Z,72.65
2023-03-06T01:45:07.790Z,72.69
2023-03-06T01:47:36.386Z,72.50
2023-03-06T01:50:06.679Z,72.81
2023-03-06T01:52:54.254Z,73.09
2023-03-06T01:55:28.229Z,72.17
2023-03-06T01:57:59.281Z,72.99
2023-03-06T02:00:29.976Z,72.84
2023-03-06T02:03:07.206Z,71.83
2023-03-06T02:05:40.103Z,73.08
2023-03-06T02:08:12.615Z,72.63
2023-03-06T02:11:00.917Z,72.55
2023-03-06T02:13:29.830Z,71.82
2023-03-06T02:15:58.706Z,72.64
2023-03-06T02:18:27.913Z,73.08
2023-03-06T02:20:59.385Z,73.20
2023-03-06T02:23:52.145Z,74.18
2023-03-06T02:26:22.083Z,74.09
2023-03-06T02:28:50.017Z,75.01
2023-03-06T02:31:26.903Z,75.11
2023-03-06T02:34:28.700Z,74.10
2023-03-06T02:37:05.617Z,75.16
2023-03-06T02:39:34.474Z,74.56
2023-03-06T02:42:02.494Z,73.98
2023-03-06T02:44:35.186Z,74.09
2023-03-06T02:47:03.091Z,74.53
2023-03-06T02:49:31.429Z,74.05
2023-03-06T02:51:59.385Z,74.25
2023-03-06T02:54:27.193Z,75.00
2023-03-06T02:56:55.185Z,75.92
2023-03-06T02:59:23.148Z,76.14
2023-03-06T03:01:51.776Z,75.17
2023-03-06T03:04:19.999Z,75.27
2023-03-06T03:06:47.851Z,75.61
2023-03-06T03:09:15.771Z,74.70
2023-03-06T03:11:43.670Z,74.80
2023-03-06T03:14:11.558Z,75.07
2023-03-06T03:16:39.487Z,74.54
2023-03-06T03:19:07.509Z,74.54
2023-03-06T03:21:35.789Z,75.11
2023-03-06T03:24:03.832Z,74.08
2023-03-06T03:26:31.692Z,74.35
2023-03-06T03:29:13.948Z,76.05
2023-03-06T03:31:41.953Z,76.10
2023-03-06T03:34:10.323Z,74.65
2023-03-06T03:36:40.706Z,75.21
2023-03-06T03:39:10.394Z,76.46
2023-03-06T03:41:38.835Z,75.61
2023-03-06T03:44:09.270Z,75.92
2023-03-06T03:46:37.311Z,75.31
2023-03-06T03:49:09.379Z,76.47
2023-03-06T03:51:38.357Z,76.44
2023-03-06T03:54:06.866Z,76.50
2023-03-06T03:56:40.747Z,76.45
2023-03-06T03:59:15.260Z,76.30
2023-03-06T04:01:52.558Z,76.04
2023-03-06T04:04:20.573Z,75.89
2023-03-06T04:06:48.776Z,76.38
2023-03-06T04:09:19.130Z,76.71
2023-03-06T04:11:47.057Z,76.32
2023-03-06T04:14:14.949Z,75.59
2023-03-06T04:16:43.397Z,75.25
2023-03-06T04:19:11.762Z,73.79
2023-03-06T04:21:40.431Z,74.92
2023-03-06T04:24:09.744Z,74.14
2023-03-06T04:26:37.658Z,75.91
2023-03-06T04:29:06.275Z,75.68
2023-03-06T04:31:34.435Z,76.03
2023-03-06T04:34:02.736Z,75.10
2023-03-06T04:36:33.883Z,76.01
2023-03-06T04:39:13.054Z,75.42
2023-03-06T04:41:42.263Z,75.82
2023-03-06T04:44:10.408Z,75.89
2023-03-06T04:46:38.281Z,76.00
2023-03-06T04:49:06.121Z,75.84
2023-03-06T04:51:36.782Z,76.06
2023-03-06T04:54:05.462Z,75.69
2023-03-06T04:56:34.730Z,76.15
2023-03-06T04:59:04.269Z,76.72
2023-03-06T05:01:32.186Z,75.96
2023-03-06T05:04:00.143Z,75.98
2023-03-06T05:06:28.068Z,75.51
2023-03-06T05:08:55.943Z,76.46
2023-03-06T05:11:23.794Z,76.68
2023-03-06T05:13:51.682Z,76.16
2023-03-06T05:16:19.611Z,75.85
2023-03-06T05:18:50.408Z,76.61
2023-03-06T05:21:18.470Z,75.73
2023-03-06T05:23:47.559Z,75.60
2023-03-06T05:26:15.561Z,75.83
2023-03-06T05:28:43.479Z,75.69
2023-03-06T05:31:11.477Z,75.79
2023-03-06T05:33:39.286Z,76.28
2023-03-06T05:36:09.285Z,75.86
2023-03-06T05:38:37.198Z,74.99
2023-03-06T05:41:05.191Z,75.83
2023-03-06T05:43:33.089Z,75.69
2023-03-06T05:46:03.529Z,74.75
2023-03-06T05:48:35.961Z,75.50
2023-03-06T05:51:05.237Z,76.63
2023-03-06T05:53:33.199Z,76.06
2023-03-06T05:56:03.957Z,74.98
2023-03-06T05:58:33.616Z,74.71
2023-03-06T06:01:09.447Z,74.39
2023-03-06T06:03:37.778Z,74.08
2023-03-06T06:06:07.071Z,74.82
2023-03-06T06:08:35.722Z,74.98
2023-03-06T06:11:08.203Z,73.81
2023-03-06T06:13:38.212Z,73.54
2023-03-06T06:16:08.112Z,74.00
2023-03-06T06:18:41.115Z,72.95
2023-03-06T06:21:11.549Z,73.08
2023-03-06T06:23:39.543Z,73.79
2023-03-06T06:26:09.422Z,74.91
2023-03-06T06:28:37.468Z,74.63
2023-03-06T06:31:10.562Z,74.04
2023-03-06T06:33:39.495Z,73.59
2023-03-06T06:36:16.001Z,73.09
2023-03-06T06:38:43.924Z,73.50
2023-03-06T06:41:38.809Z,73.99
2023-03-06T06:44:00.242Z,73.58
2023-03-06T06:49:17.694Z,72.18
2023-03-06T06:51:45.616Z,72.21
2023-03-06T06:54:13.719Z,72.00
2023-03-06T06:56:41.617Z,72.55
2023-03-06T06:59:16.710Z,72.17
2023-03-06T07:01:45.442Z,72.65
2023-03-06T07:04:13.831Z,72.71
2023-03-06T07:06:42.639Z,70.69
2023-03-06T07:09:12.246Z,70.75
2023-03-06T07:11:41.468Z,70.93
2023-03-06T07:14:09.425Z,71.04
2023-03-06T07:16:37.376Z,70.51
2023-03-06T07:19:06.319Z,70.16
2023-03-06T07:21:34.346Z,69.75
2023-03-06T07:24:02.294Z,69.71
2023-03-06T07:26:32.733Z,70.11
2023-03-06T07:29:03.630Z,69.50
2023-03-06T07:31:32.084Z,70.23
2023-03-06T07:34:00.230Z,70.03
2023-03-06T07:36:28.699Z,69.82
2023-03-06T07:38:56.536Z,70.18
2023-03-06T07:41:24.427Z,69.39
2023-03-06T07:43:52.374Z,69.24
2023-03-06T07:46:20.362Z,69.53
2023-03-06T07:48:48.264Z,70.19
2023-03-06T07:51:21.453Z,69.74
2023-03-06T07:53:50.370Z,69.18
2023-03-06T07:56:18.198Z,69.52
2023-03-06T07:58:47.685Z,69.78
2023-03-06T08:01:20.467Z,68.33
2023-03-06T08:03:50.082Z,68.04
2023-03-06T08:06:22.271Z,68.19
2023-03-06T08:08:52.325Z,67.96
2023-03-06T08:11:23.105Z,67.18
2023-03-06T08:13:52.854Z,66.77
2023-03-06T08:16:26.792Z,67.41
2023-03-06T08:18:55.423Z,66.57
2023-03-06T08:21:26.428Z,66.31
2023-03-06T08:23:54.824Z,66.85
2023-03-06T08:26:25.529Z,66.39
2023-03-06T08:28:54.890Z,65.96
2023-03-06T08:31:27.744Z,65.21
2023-03-06T08:33:57.162Z,64.40
2023-03-06T08:36:25.559Z,64.62
2023-03-06T08:38:53.538Z,63.91
2023-03-06T08:41:21.653Z,64.16
2023-03-06T08:43:50.465Z,63.63
2023-03-06T08:46:19.650Z,63.51
2023-03-06T08:48:48.253Z,63.60
2023-03-06T08:51:17.303Z,63.42
2023-03-06T08:53:45.906Z,63.52
2023-03-06T08:56:21.590Z,63.58
2023-03-06T08:58:50.246Z,62.63
2023-03-06T09:01:27.040Z,60.98
2023-03-06T09:03:57.022Z,61.25
2023-03-06T09:06:26.860Z,61.66
2023-03-06T09:08:55.499Z,61.02
2023-03-06T09:11:25.104Z,60.53
2023-03-06T09:13:53.921Z,60.01
2023-03-06T09:16:22.026Z,59.43
2023-03-06T09:18:52.831Z,58.70
2023-03-06T09:21:21.965Z,58.99
2023-03-06T09:23:50.439Z,60.43
2023-03-06T09:26:18.703Z,59.88
2023-03-06T09:28:47.382Z,59.71
2023-03-06T09:31:18.203Z,59.00
2023-03-06T09:33:47.469Z,58.52
2023-03-06T09:36:20.400Z,58.87
2023-03-06T09:38:50.028Z,59.24
2023-03-06T09:41:29.598Z,59.98
2023-03-06T09:44:15.392Z,58.81
2023-03-06T09:47:08.042Z,59.11
2023-03-06T09:49:44.805Z,58.00
2023-03-06T09:52:19.883Z,59.42
2023-03-06T09:54:54.525Z,58.15
2023-03-06T09:57:29.380Z,58.78
2023-03-06T10:00:04.253Z,58.05
2023-03-06T10:02:49.263Z,57.80
2023-03-06T10:05:22.695Z,57.94
2023-03-06T10:07:58.567Z,58.17
2023-03-06T10:10:39.755Z,58.14
2023-03-06T10:13:24.400Z,57.87
2023-03-06T10:16:01.925Z,57.68
2023-03-06T10:18:30.020Z,58.11
2023-03-06T10:21:13.607Z,57.47
2023-03-06T10:23:55.112Z,55.57
2023-03-06T10:26:26.249Z,55.82
2023-03-06T10:28:54.149Z,55.90
2023-03-06T10:31:25.282Z,54.98
2023-03-06T10:34:15.262Z,55.20
2023-03-06T10:36:43.231Z,54.47
2023-03-06T10:39:21.106Z,54.24
2023-03-06T10:41:49.612Z,54.09
2023-03-06T10:44:19.205Z,53.97
2023-03-06T10:46:51.651Z,53.52
2023-03-06T10:49:28.349Z,53.99
2023-03-06T10:52:05.699Z,54.25
2023-03-06T10:54:36.972Z,53.42
2023-03-06T10:57:20.804Z,53.68
2023-03-06T11:00:00.302Z,55.02
2023-03-06T11:02:36.586Z,53.67
2023-03-06T11:05:06.224Z,53.95
2023-03-06T11:07:36.440Z,54.51
2023-03-06T11:10:23.667Z,53.71
2023-03-06T11:13:04.618Z,53.68
2023-03-06T11:15:32.560Z,54.01
2023-03-06T11:18:20.299Z,53.70
2023-03-06T11:20:54.301Z,53.58
2023-03-06T11:23:35.515Z,54.90
2023-03-06T11:26:20.173Z,56.75
2023-03-06T11:29:03.133Z,56.45
2023-03-06T11:31:38.924Z,56.75
2023-03-06T11:34:42.107Z,56.98
2023-03-06T11:37:34.495Z,56.90
2023-03-06T11:40:11.846Z,55.91
2023-03-06T11:42:44.328Z,56.46
2023-03-06T11:45:27.503Z,56.11
2023-03-06T11:48:14.711Z,56.13
2023-03-06T11:50:52.643Z,56.10
2023-03-06T11:53:32.157Z,55.97
2023-03-06T11:56:18.437Z,54.34
2023-03-06T11:59:01.326Z,54.06
2023-03-06T12:01:47.316Z,54.17
2023-03-06T12:04:33.725Z,53.83
2023-03-06T12:07:26.565Z,53.08
2023-03-06T12:10:19.221Z,53.31
2023-03-06T12:13:08.392Z,54.31
2023-03-06T12:16:26.170Z,54.60
2023-03-06T12:19:12.667Z,53.53
2023-03-06T12:22:03.448Z,53.17
2023-03-06T12:24:55.467Z,52.99
2023-03-06T12:27:48.679Z,53.84
2023-03-06T12:30:34.779Z,53.09
2023-03-06T12:33:27.010Z,53.20
2023-03-06T12:35:59.986Z,54.33
2023-03-06T12:39:00.711Z,53.47
2023-03-06T12:41:40.711Z,53.55
2023-03-06T12:44:21.037Z,55.00
2023-03-06T12:46:59.418Z,54.95
2023-03-06T12:49:33.444Z,53.75
2023-03-06T12:52:05.252Z,54.71
2023-03-06T12:54:38.928Z,53.76
2023-03-06T12:57:09.259Z,55.34
2023-03-06T12:59:47.908Z,55.93
2023-03-06T13:02:40.051Z,55.11
2023-03-06T13:05:14.031Z,55.75
2023-03-06T13:07:41.913Z,56.10
2023-03-06T13:10:16.293Z,56.51
2023-03-06T13:13:01.226Z,57.37
2023-03-06T13:15:33.798Z,56.93
2023-03-06T13:18:25.893Z,57.49
2023-03-06T13:20:55.536Z,56.54
2023-03-06T13:23:29.725Z,55.06
2023-03-06T13:25:58.436Z,55.43
2023-03-06T13:28:46.345Z,56.60
2023-03-06T13:31:33.973Z,55.91
2023-03-06T13:34:26.440Z,55.54
2023-03-06T13:37:16.889Z,55.36
2023-03-06T13:39:57.346Z,56.07
2023-03-06T13:42:55.316Z,56.05
2023-03-06T13:45:27.580Z,55.86
2023-03-06T13:48:22.575Z,56.61
2023-03-06T13:50:47.728Z,56.70
2023-03-06T13:53:36.958Z,55.28
2023-03-06T13:56:26.408Z,55.04
2023-03-06T13:59:33.586Z,55.68
2023-03-06T14:02:39.148Z,56.45
2023-03-06T14:05:14.129Z,56.19
2023-03-06T14:07:47.409Z,56.08
2023-03-06T14:10:25.813Z,55.68
2023-03-06T14:13:04.693Z,56.08
2023-03-06T14:15:50.873Z,55.49
2023-03-06T14:18:38.363Z,56.08
2023-03-06T14:21:14.410Z,56.21
2023-03-06T14:23:45.047Z,55.90
2023-03-06T14:26:22.875Z,56.03
2023-03-06T14:28:59.143Z,56.07
2023-03-06T14:31:36.527Z,55.98
2023-03-06T14:34:15.090Z,57.04
2023-03-06T14:36:46.583Z,56.43
2023-03-06T14:39:33.376Z,56.77
2023-03-06T14:42:27.081Z,57.22
2023-03-06T14:45:15.869Z,57.77
2023-03-06T14:47:49.284Z,57.72
2023-03-06T14:50:21.506Z,57.84
2023-03-06T14:53:26.088Z,57.79
2023-03-06T14:56:00.480Z,57.37
2023-03-06T14:58:50.159Z,58.25
2023-03-06T15:01:28.024Z,58.10
2023-03-06T15:03:59.648Z,58.35
2023-03-06T15:06:41.871Z,58.65
2023-03-06T15:09:26.596Z,58.16
2023-03-06T15:11:57.539Z,58.78
2023-03-06T15:14:43.044Z,58.99
2023-03-06T15:17:19.981Z,59.50
2023-03-06T15:19:56.720Z,59.42
2023-03-06T15:22:37.940Z,59.82
2023-03-06T15:25:27.183Z,59.54
2023-03-06T15:28:01.855Z,59.90
2023-03-06T15:30:35.091Z,59.85
2023-03-06T15:33:27.923Z,60.02
2023-03-06T15:36:01.759Z,61.08
2023-03-06T15:38:42.198Z,61.28
2023-03-06T15:41:42.026Z,61.46
2023-03-06T15:44:13.233Z,61.05
2023-03-06T15:46:41.703Z,61.00
2023-03-06T15:49:14.932Z,61.28
2023-03-06T15:51:42.908Z,61.09
2023-03-06T15:54:12.645Z,61.21
2023-03-06T15:56:43.295Z,61.18
2023-03-06T15:59:23.613Z,60.41
2023-03-06T16:01:52.604Z,61.00
2023-03-06T16:04:20.715Z,60.47
2023-03-06T16:06:48.826Z,61.16
2023-03-06T16:09:16.734Z,60.95
2023-03-06T16:11:45.505Z,61.48
2023-03-06T16:14:21.129Z,61.81
2023-03-06T16:16:50.443Z,61.45
2023-03-06T16:19:27.393Z,61.38
2023-03-06T16:21:56.770Z,61.95
2023-03-06T16:24:26.258Z,62.10
2023-03-06T16:26:55.017Z,62.42
2023-03-06T16:29:25.932Z,62.33
2023-03-06T16:31:55.492Z,62.38
2023-03-06T16:34:23.921Z,62.59
2023-03-06T16:36:51.852Z,63.02
2023-03-06T16:39:22.171Z,64.83
2023-03-06T16:41:50.220Z,62.80
2023-03-06T16:44:19.234Z,62.80
2023-03-06T16:46:49.088Z,63.38
2023-03-06T16:49:23.365Z,63.47
2023-03-06T16:51:52.776Z,63.40
2023-03-06T16:54:21.889Z,63.56
2023-03-06T16:56:49.901Z,63.33
2023-03-06T16:59:17.841Z,63.83
2023-03-06T17:01:45.781Z,63.99
2023-03-06T17:04:13.708Z,64.33
2023-03-06T17:06:41.924Z,63.80
2023-03-06T17:09:14.429Z,64.56
2023-03-06T17:11:46.824Z,64.01
2023-03-06T17:14:14.965Z,64.78
2023-03-06T17:16:42.915Z,64.93
2023-03-06T17:19:14.400Z,65.14
2023-03-06T17:21:43.851Z,64.85
2023-03-06T17:24:11.811Z,65.39
2023-03-06T17:26:40.258Z,65.54
2023-03-06T17:29:09.279Z,65.81
2023-03-06T17:31:37.143Z,65.79
2023-03-06T17:34:05.582Z,65.25
2023-03-06T17:36:33.905Z,66.06
2023-03-06T17:39:02.963Z,66.28
2023-03-06T17:41:32.797Z,66.42
2023-03-06T17:44:01.784Z,66.27
2023-03-06T17:46:31.822Z,67.07
2023-03-06T17:48:59.752Z,66.21
2023-03-06T17:51:27.688Z,66.86
2023-03-06T17:53:55.711Z,66.69
2023-03-06T17:56:23.714Z,66.65
2023-03-06T17:58:51.570Z,67.29
2023-03-06T18:01:22.668Z,67.23
2023-03-06T18:03:51.641Z,67.27
2023-03-06T18:06:21.150Z,67.71
2023-03-06T18:08:52.703Z,67.71
2023-03-06T18:11:22.289Z,67.49
2023-03-06T18:13:51.249Z,67.01
2023-03-06T18:16:21.760Z,68.01
2023-03-06T18:18:55.355Z,68.08
2023-03-06T18:21:24.774Z,68.01
2023-03-06T18:23:52.722Z,68.43
2023-03-06T18:26:23.386Z,68.09
2023-03-06T18:29:06.199Z,68.33
2023-03-06T18:31:37.990Z,68.00
2023-03-06T18:34:14.777Z,68.98
2023-03-06T18:36:43.603Z,68.80
2023-03-06T18:39:12.869Z,68.45
2023-03-06T18:41:41.376Z,69.14
2023-03-06T18:44:09.294Z,67.88
2023-03-06T18:46:38.413Z,69.00
2023-03-06T18:49:06.734Z,68.71
2023-03-06T18:51:35.272Z,68.61
2023-03-06T18:54:04.715Z,69.09
2023-03-06T18:56:33.652Z,68.15
2023-03-06T18:59:05.794Z,68.26
2023-03-06T19:01:34.464Z,68.61
2023-03-06T19:04:04.144Z,68.58
2023-03-06T19:06:32.242Z,68.20
2023-03-06T19:09:01.816Z,67.80
2023-03-06T19:11:31.965Z,68.78
2023-03-06T19:14:00.268Z,67.86
2023-03-06T19:16:30.241Z,67.87
2023-03-06T19:18:58.946Z,68.42
2023-03-06T19:21:28.162Z,68.30
2023-03-06T19:23:56.219Z,68.24
2023-03-06T19:26:25.187Z,68.62
2023-03-06T19:28:53.144Z,68.27
2023-03-06T19:31:26.881Z,67.90
2023-03-06T19:33:56.738Z,68.63
2023-03-06T19:36:28.746Z,68.97
2023-03-06T19:38:58.844Z,68.43
2023-03-06T19:41:27.324Z,68.26
2023-03-06T19:43:58.410Z,68.17
2023-03-06T19:46:27.466Z,68.05
2023-03-06T19:48:57.851Z,68.10
2023-03-06T19:51:26.882Z,67.95
2023-03-06T19:53:56.668Z,68.22
2023-03-06T19:56:28.902Z,68.43
2023-03-06T19:58:57.404Z,68.17
2023-03-06T20:01:27.629Z,68.37
2023-03-06T20:04:00.340Z,68.11
2023-03-06T20:06:31.506Z,67.91
2023-03-06T20:09:01.679Z,67.78
2023-03-06T20:11:32.579Z,68.49
2023-03-06T20:14:02.578Z,68.01
2023-03-06T20:16:31.388Z,68.05
2023-03-06T20:19:00.966Z,67.71
2023-03-06T20:21:31.750Z,68.30
2023-03-06T20:23:59.730Z,69.02
2023-03-06T20:26:29.647Z,68.89
2023-03-06T20:28:58.392Z,68.32
2023-03-06T20:31:28.661Z,68.53
2023-03-06T20:33:58.206Z,69.18
2023-03-06T20:36:40.266Z,68.68
2023-03-06T20:39:11.851Z,68.54
2023-03-06T20:41:40.079Z,68.58
2023-03-06T20:44:11.477Z,68.40
2023-03-06T20:46:40.601Z,68.01
2023-03-06T20:49:08.705Z,69.13
2023-03-06T20:51:39.198Z,69.99
2023-03-06T20:54:10.064Z,69.45
2023-03-06T20:56:39.666Z,68.34
2023-03-06T20:59:11.561Z,68.58
2023-03-06T21:01:42.151Z,68.25
2023-03-06T21:04:13.560Z,68.23
2023-03-06T21:06:46.404Z,67.79
2023-03-06T21:09:16.513Z,67.74
2023-03-06T21:11:44.689Z,67.53
2023-03-06T21:14:14.265Z,67.30
2023-03-06T21:16:42.486Z,67.20
2023-03-06T21:19:10.684Z,68.10
2023-03-06T21:21:38.563Z,67.29
2023-03-06T21:24:06.558Z,66.48
2023-03-06T21:26:34.456Z,67.12
2023-03-06T21:29:02.610Z,67.09
2023-03-06T21:31:31.496Z,67.74
2023-03-06T21:33:59.686Z,68.30
2023-03-06T21:36:28.198Z,68.30
2023-03-06T21:38:56.130Z,67.50
2023-03-06T21:41:26.980Z,68.24
2023-03-06T21:44:00.184Z,69.01
2023-03-06T21:46:28.568Z,68.64
2023-03-06T21:48:57.328Z,68.60
2023-03-06T21:51:26.715Z,69.12
2023-03-06T21:53:55.484Z,69.00
2023-03-06T21:56:25.430Z,68.46
2023-03-06T21:58:53.448Z,69.26
2023-03-06T22:01:25.238Z,69.60
2023-03-06T22:03:53.505Z,68.63
2023-03-06T22:06:26.693Z,68.46
2023-03-06T22:08:56.597Z,68.72
2023-03-06T22:11:25.567Z,68.64
2023-03-06T22:13:53.692Z,68.98
2023-03-06T22:16:21.886Z,68.79
2023-03-06T22:18:51.273Z,68.46
2023-03-06T22:21:21.616Z,68.74
2023-03-06T22:23:59.154Z,68.67
2023-03-06T22:26:29.220Z,69.01
2023-03-06T22:28:57.115Z,68.65
2023-03-06T22:31:28.483Z,68.69
2023-03-06T22:33:59.285Z,68.65
2023-03-06T22:36:30.404Z,69.11
2023-03-06T22:39:00.733Z,69.66
2023-03-06T22:41:29.685Z,69.12
2023-03-06T22:43:59.941Z,69.56
2023-03-06T22:46:28.506Z,69.52
2023-03-06T22:49:00.181Z,70.25
2023-03-06T22:51:29.529Z,70.82
2023-03-06T22:53:58.139Z,70.39
2023-03-06T22:56:26.048Z,70.50
2023-03-06T22:58:53.953Z,70.91
2023-03-06T23:01:25.336Z,71.36
2023-03-06T23:03:55.747Z,70.83
2023-03-06T23:06:26.382Z,71.26
2023-03-06T23:09:03.532Z,71.83
2023-03-06T23:11:32.566Z,71.66
2023-03-06T23:14:19.763Z,70.46
2023-03-06T23:17:06.864Z,71.51
2023-03-06T23:19:53.532Z,71.63
2023-03-06T23:22:39.665Z,71.66
2023-03-06T23:25:26.011Z,71.03
2023-03-06T23:27:55.674Z,71.64
2023-03-06T23:30:23.497Z,71.62
2023-03-06T23:32:51.350Z,70.95
2023-03-06T23:35:19.251Z,70.62
2023-03-06T23:37:47.341Z,70.15
2023-03-06T23:40:15.592Z,70.15
2023-03-06T23:42:43.555Z,70.01
2023-03-06T23:45:11.781Z,69.93
2023-03-06T23:47:39.702Z,69.29
2023-03-06T23:50:07.989Z,71.02
2023-03-06T23:52:35.883Z,72.80
2023-03-06T23:55:05.584Z,73.27
2023-03-06T23:57:33.421Z,72.95
